sensor_id;sensor_type;location;lat;lon;timestamp;pressure;altitude;pressure_sealevel;temperature
62611;BMP280;48683;48.084;17.272;2023-05-10T00:01:22;100400.63;;;9.86
62611;BMP280;48683;48.084;17.272;2023-05-10T00:03:47;100395.59;;;9.74
62611;BMP280;48683;48.084;17.272;2023-05-10T00:06:13;100396.31;;;9.68
62611;BMP280;48683;48.084;17.272;2023-05-10T00:08:38;100395.22;;;9.72
62611;BMP280;48683;48.084;17.272;2023-05-10T00:11:04;100400.16;;;9.70
62611;BMP280;48683;48.084;17.272;2023-05-10T00:13:29;100395.22;;;9.76
62611;BMP280;48683;48.084;17.272;2023-05-10T00:15:54;100387.53;;;9.74
62611;BMP280;48683;48.084;17.272;2023-05-10T00:18:20;100388.31;;;9.75
62611;BMP280;48683;48.084;17.272;2023-05-10T00:20:45;100386.44;;;9.79
62611;BMP280;48683;48.084;17.272;2023-05-10T00:23:11;100379.44;;;9.64
62611;BMP280;48683;48.084;17.272;2023-05-10T00:25:37;100384.47;;;9.69
62611;BMP280;48683;48.084;17.272;2023-05-10T00:28:02;100382.91;;;9.68
62611;BMP280;48683;48.084;17.272;2023-05-10T00:30:27;100378.66;;;9.60
62611;BMP280;48683;48.084;17.272;2023-05-10T00:32:53;100381.75;;;9.65
62611;BMP280;48683;48.084;17.272;2023-05-10T00:35:18;100381.00;;;9.68
62611;BMP280;48683;48.084;17.272;2023-05-10T00:37:44;100374.44;;;9.59
62611;BMP280;48683;48.084;17.272;2023-05-10T00:40:10;100380.53;;;9.56
62611;BMP280;48683;48.084;17.272;2023-05-10T00:42:36;100369.41;;;9.53
62611;BMP280;48683;48.084;17.272;2023-05-10T00:45:01;100368.56;;;9.42
62611;BMP280;48683;48.084;17.272;2023-05-10T00:47:27;100374.69;;;9.39
62611;BMP280;48683;48.084;17.272;2023-05-10T00:49:53;100369.34;;;9.39
62611;BMP280;48683;48.084;17.272;2023-05-10T00:52:18;100364.69;;;9.33
62611;BMP280;48683;48.084;17.272;2023-05-10T00:54:44;100366.97;;;9.31
62611;BMP280;48683;48.084;17.272;2023-05-10T00:57:10;100369.34;;;9.43
62611;BMP280;48683;48.084;17.272;2023-05-10T00:59:36;100367.38;;;9.33
62611;BMP280;48683;48.084;17.272;2023-05-10T01:02:01;100355.13;;;9.32
62611;BMP280;48683;48.084;17.272;2023-05-10T01:04:27;100368.91;;;9.34
62611;BMP280;48683;48.084;17.272;2023-05-10T01:06:53;100353.19;;;9.29
62611;BMP280;48683;48.084;17.272;2023-05-10T01:09:19;100357.31;;;9.19
62611;BMP280;48683;48.084;17.272;2023-05-10T01:11:45;100354.22;;;9.10
62611;BMP280;48683;48.084;17.272;2023-05-10T01:14:11;100350.38;;;9.11
62611;BMP280;48683;48.084;17.272;2023-05-10T01:16:38;100343.09;;;9.08
62611;BMP280;48683;48.084;17.272;2023-05-10T01:19:30;100349.25;;;9.16
62611;BMP280;48683;48.084;17.272;2023-05-10T01:24:33;100345.41;;;9.10
62611;BMP280;48683;48.084;17.272;2023-05-10T01:27:41;100349.94;;;9.02
62611;BMP280;48683;48.084;17.272;2023-05-10T01:33:19;100336.03;;;8.86
62611;BMP280;48683;48.084;17.272;2023-05-10T01:36:05;100340.19;;;8.83
62611;BMP280;48683;48.084;17.272;2023-05-10T01:44:24;100337.94;;;8.85
62611;BMP280;48683;48.084;17.272;2023-05-10T01:46:58;100328.72;;;8.79
62611;BMP280;48683;48.084;17.272;2023-05-10T01:49:30;100340.19;;;8.83
62611;BMP280;48683;48.084;17.272;2023-05-10T01:52:01;100342.22;;;8.93
62611;BMP280;48683;48.084;17.272;2023-05-10T01:54:29;100334.47;;;8.85
62611;BMP280;48683;48.084;17.272;2023-05-10T01:57:00;100332.16;;;8.83
62611;BMP280;48683;48.084;17.272;2023-05-10T01:59:31;100332.88;;;8.77
62611;BMP280;48683;48.084;17.272;2023-05-10T02:02:01;100328.22;;;8.67
62611;BMP280;48683;48.084;17.272;2023-05-10T02:04:27;100324.34;;;8.64
62611;BMP280;48683;48.084;17.272;2023-05-10T02:06:53;100333.09;;;8.57
62611;BMP280;48683;48.084;17.272;2023-05-10T02:09:20;100335.72;;;8.54
62611;BMP280;48683;48.084;17.272;2023-05-10T02:11:48;100323.09;;;8.51
62611;BMP280;48683;48.084;17.272;2023-05-10T02:14:15;100326.09;;;8.46
62611;BMP280;48683;48.084;17.272;2023-05-10T02:16:41;100318.41;;;8.44
62611;BMP280;48683;48.084;17.272;2023-05-10T02:19:07;100319.19;;;8.45
62611;BMP280;48683;48.084;17.272;2023-05-10T02:21:34;100314.22;;;8.43
62611;BMP280;48683;48.084;17.272;2023-05-10T02:24:02;100313.06;;;8.44
62611;BMP280;48683;48.084;17.272;2023-05-10T02:26:29;100317.25;;;8.42
62611;BMP280;48683;48.084;17.272;2023-05-10T02:28:56;100313.47;;;8.43
62611;BMP280;48683;48.084;17.272;2023-05-10T02:31:22;100311.72;;;8.24
62611;BMP280;48683;48.084;17.272;2023-05-10T02:33:48;100316.47;;;8.41
62611;BMP280;48683;48.084;17.272;2023-05-10T02:36:15;100316.44;;;8.38
62611;BMP280;48683;48.084;17.272;2023-05-10T02:38:40;100324.47;;;8.38
62611;BMP280;48683;48.084;17.272;2023-05-10T02:41:07;100321.00;;;8.34
62611;BMP280;48683;48.084;17.272;2023-05-10T02:43:34;100328.53;;;8.25
62611;BMP280;48683;48.084;17.272;2023-05-10T02:46:01;100328.97;;;8.30
62611;BMP280;48683;48.084;17.272;2023-05-10T02:48:26;100324.13;;;8.39
62611;BMP280;48683;48.084;17.272;2023-05-10T02:50:55;100329.06;;;8.37
62611;BMP280;48683;48.084;17.272;2023-05-10T02:53:23;100331.59;;;8.27
62611;BMP280;48683;48.084;17.272;2023-05-10T02:55:54;100327.72;;;8.21
62611;BMP280;48683;48.084;17.272;2023-05-10T02:58:22;100330.78;;;8.23
62611;BMP280;48683;48.084;17.272;2023-05-10T03:00:47;100340.38;;;8.27
62611;BMP280;48683;48.084;17.272;2023-05-10T03:03:13;100333.56;;;8.30
62611;BMP280;48683;48.084;17.272;2023-05-10T03:05:38;100337.69;;;8.24
62611;BMP280;48683;48.084;17.272;2023-05-10T03:08:03;100333.09;;;8.24
62611;BMP280;48683;48.084;17.272;2023-05-10T03:10:30;100330.41;;;8.21
62611;BMP280;48683;48.084;17.272;2023-05-10T03:15:55;100342.38;;;8.34
62611;BMP280;48683;48.084;17.272;2023-05-10T03:18:29;100333.06;;;8.21
62611;BMP280;48683;48.084;17.272;2023-05-10T03:21:02;100330.31;;;8.17
62611;BMP280;48683;48.084;17.272;2023-05-10T03:23:35;100343.03;;;8.24
62611;BMP280;48683;48.084;17.272;2023-05-10T03:26:04;100344.44;;;8.14
62611;BMP280;48683;48.084;17.272;2023-05-10T03:28:29;100346.69;;;8.08
62611;BMP280;48683;48.084;17.272;2023-05-10T03:30:55;100342.09;;;8.09
62611;BMP280;48683;48.084;17.272;2023-05-10T03:33:21;100338.97;;;8.03
62611;BMP280;48683;48.084;17.272;2023-05-10T03:35:47;100336.75;;;8.09
62611;BMP280;48683;48.084;17.272;2023-05-10T03:38:13;100340.88;;;8.03
62611;BMP280;48683;48.084;17.272;2023-05-10T03:40:38;100345.03;;;8.00
62611;BMP280;48683;48.084;17.272;2023-05-10T03:43:03;100342.72;;;7.99
62611;BMP280;48683;48.084;17.272;2023-05-10T03:45:29;100343.16;;;8.01
62611;BMP280;48683;48.084;17.272;2023-05-10T03:47:56;100356.22;;;8.09
62611;BMP280;48683;48.084;17.272;2023-05-10T03:50:22;100353.09;;;8.04
62611;BMP280;48683;48.084;17.272;2023-05-10T03:52:47;100356.59;;;8.08
62611;BMP280;48683;48.084;17.272;2023-05-10T03:55:13;100352.44;;;8.14
62611;BMP280;48683;48.084;17.272;2023-05-10T03:57:38;100355.81;;;8.07
62611;BMP280;48683;48.084;17.272;2023-05-10T04:00:04;100366.22;;;8.13
62611;BMP280;48683;48.084;17.272;2023-05-10T04:02:29;100373.50;;;8.16
62611;BMP280;48683;48.084;17.272;2023-05-10T04:04:55;100374.00;;;8.25
62611;BMP280;48683;48.084;17.272;2023-05-10T04:07:21;100369.53;;;8.32
62611;BMP280;48683;48.084;17.272;2023-05-10T04:09:46;100364.66;;;8.45
62611;BMP280;48683;48.084;17.272;2023-05-10T04:12:12;100376.88;;;8.42
62611;BMP280;48683;48.084;17.272;2023-05-10T04:14:37;100376.66;;;8.58
62611;BMP280;48683;48.084;17.272;2023-05-10T04:17:02;100378.59;;;8.61
62611;BMP280;48683;48.084;17.272;2023-05-10T04:19:31;100380.53;;;8.64
62611;BMP280;48683;48.084;17.272;2023-05-10T04:21:57;100380.63;;;8.71
62611;BMP280;48683;48.084;17.272;2023-05-10T04:24:23;100387.63;;;8.83
62611;BMP280;48683;48.084;17.272;2023-05-10T04:26:48;100390.75;;;8.92
62611;BMP280;48683;48.084;17.272;2023-05-10T04:29:14;100387.44;;;9.05
62611;BMP280;48683;48.084;17.272;2023-05-10T04:31:39;100381.34;;;9.09
62611;BMP280;48683;48.084;17.272;2023-05-10T04:34:05;100390.97;;;9.17
62611;BMP280;48683;48.084;17.272;2023-05-10T04:36:30;100388.78;;;9.29
62611;BMP280;48683;48.084;17.272;2023-05-10T04:38:57;100395.34;;;9.39
62611;BMP280;48683;48.084;17.272;2023-05-10T04:41:22;100397.75;;;9.54
62611;BMP280;48683;48.084;17.272;2023-05-10T04:43:48;100397.81;;;9.65
62611;BMP280;48683;48.084;17.272;2023-05-10T04:46:14;100396.75;;;9.77
62611;BMP280;48683;48.084;17.272;2023-05-10T04:48:40;100393.38;;;9.90
62611;BMP280;48683;48.084;17.272;2023-05-10T04:51:05;100403.81;;;10.10
62611;BMP280;48683;48.084;17.272;2023-05-10T04:53:31;100402.69;;;10.14
62611;BMP280;48683;48.084;17.272;2023-05-10T04:55:57;100393.22;;;10.31
62611;BMP280;48683;48.084;17.272;2023-05-10T04:58:22;100398.59;;;10.34
62611;BMP280;48683;48.084;17.272;2023-05-10T05:00:47;100391.72;;;10.44
62611;BMP280;48683;48.084;17.272;2023-05-10T05:03:13;100407.47;;;10.63
62611;BMP280;48683;48.084;17.272;2023-05-10T05:05:38;100401.75;;;10.72
62611;BMP280;48683;48.084;17.272;2023-05-10T05:08:04;100400.25;;;10.99
62611;BMP280;48683;48.084;17.272;2023-05-10T05:10:29;100400.66;;;11.15
62611;BMP280;48683;48.084;17.272;2023-05-10T05:12:55;100397.19;;;11.29
62611;BMP280;48683;48.084;17.272;2023-05-10T05:18:15;100371.06;;;11.36
62611;BMP280;48683;48.084;17.272;2023-05-10T05:20:41;100386.78;;;11.52
62611;BMP280;48683;48.084;17.272;2023-05-10T05:25:41;100394.47;;;11.82
62611;BMP280;48683;48.084;17.272;2023-05-10T05:28:07;100410.97;;;11.87
62611;BMP280;48683;48.084;17.272;2023-05-10T05:30:32;100419.00;;;11.95
62611;BMP280;48683;48.084;17.272;2023-05-10T05:32:58;100416.63;;;12.14
62611;BMP280;48683;48.084;17.272;2023-05-10T05:35:23;100404.38;;;12.13
62611;BMP280;48683;48.084;17.272;2023-05-10T05:38:12;100414.28;;;12.30
62611;BMP280;48683;48.084;17.272;2023-05-10T05:40:38;100418.88;;;12.33
62611;BMP280;48683;48.084;17.272;2023-05-10T05:43:03;100412.28;;;12.52
62611;BMP280;48683;48.084;17.272;2023-05-10T05:45:28;100412.56;;;12.65
62611;BMP280;48683;48.084;17.272;2023-05-10T05:47:54;100415.94;;;12.83
62611;BMP280;48683;48.084;17.272;2023-05-10T05:50:19;100412.16;;;12.70
62611;BMP280;48683;48.084;17.272;2023-05-10T05:52:44;100422.03;;;12.91
62611;BMP280;48683;48.084;17.272;2023-05-10T05:55:10;100417.47;;;12.80
62611;BMP280;48683;48.084;17.272;2023-05-10T05:57:35;100418.56;;;12.90
62611;BMP280;48683;48.084;17.272;2023-05-10T06:00:01;100417.34;;;13.02
62611;BMP280;48683;48.084;17.272;2023-05-10T06:02:27;100417.16;;;13.30
62611;BMP280;48683;48.084;17.272;2023-05-10T06:04:53;100415.31;;;13.20
62611;BMP280;48683;48.084;17.272;2023-05-10T06:07:18;100419.69;;;13.48
62611;BMP280;48683;48.084;17.272;2023-05-10T06:09:43;100417.34;;;13.53
62611;BMP280;48683;48.084;17.272;2023-05-10T06:12:09;100420.97;;;13.73
62611;BMP280;48683;48.084;17.272;2023-05-10T06:14:34;100412.16;;;13.73
62611;BMP280;48683;48.084;17.272;2023-05-10T06:17:00;100418.66;;;13.75
62611;BMP280;48683;48.084;17.272;2023-05-10T06:19:25;100410.72;;;13.99
62611;BMP280;48683;48.084;17.272;2023-05-10T06:21:51;100421.63;;;14.22
62611;BMP280;48683;48.084;17.272;2023-05-10T06:24:16;100419.50;;;14.40
62611;BMP280;48683;48.084;17.272;2023-05-10T06:26:42;100419.50;;;14.40
62611;BMP280;48683;48.084;17.272;2023-05-10T06:29:07;100421.66;;;14.52
62611;BMP280;48683;48.084;17.272;2023-05-10T06:31:33;100409.78;;;14.46
62611;BMP280;48683;48.084;17.272;2023-05-10T06:33:58;100407.03;;;14.50
62611;BMP280;48683;48.084;17.272;2023-05-10T06:36:23;100408.50;;;14.54
62611;BMP280;48683;48.084;17.272;2023-05-10T06:38:51;100418.72;;;14.70
62611;BMP280;48683;48.084;17.272;2023-05-10T06:41:16;100419.72;;;14.80
62611;BMP280;48683;48.084;17.272;2023-05-10T06:43:42;100416.41;;;14.95
62611;BMP280;48683;48.084;17.272;2023-05-10T06:46:08;100427.13;;;15.26
62611;BMP280;48683;48.084;17.272;2023-05-10T06:48:33;100425.72;;;15.41
62611;BMP280;48683;48.084;17.272;2023-05-10T06:50:59;100417.66;;;15.14
62611;BMP280;48683;48.084;17.272;2023-05-10T06:53:24;100424.16;;;15.43
62611;BMP280;48683;48.084;17.272;2023-05-10T06:55:50;100415.53;;;15.52
62611;BMP280;48683;48.084;17.272;2023-05-10T06:58:15;100411.91;;;15.35
62611;BMP280;48683;48.084;17.272;2023-05-10T07:00:41;100416.94;;;15.37
62611;BMP280;48683;48.084;17.272;2023-05-10T07:03:09;100412.56;;;15.43
62611;BMP280;48683;48.084;17.272;2023-05-10T07:05:34;100417.31;;;15.35
62611;BMP280;48683;48.084;17.272;2023-05-10T07:08:00;100420.13;;;15.55
62611;BMP280;48683;48.084;17.272;2023-05-10T07:10:26;100411.56;;;15.56
62611;BMP280;48683;48.084;17.272;2023-05-10T07:12:51;100426.16;;;15.62
62611;BMP280;48683;48.084;17.272;2023-05-10T07:15:17;100414.09;;;15.67
62611;BMP280;48683;48.084;17.272;2023-05-10T07:17:42;100416.88;;;15.63
62611;BMP280;48683;48.084;17.272;2023-05-10T07:20:08;100426.97;;;15.83
62611;BMP280;48683;48.084;17.272;2023-05-10T07:22:33;100409.69;;;15.96
62611;BMP280;48683;48.084;17.272;2023-05-10T07:24:59;100400.16;;;15.88
62611;BMP280;48683;48.084;17.272;2023-05-10T07:27:25;100410.59;;;16.09
62611;BMP280;48683;48.084;17.272;2023-05-10T07:29:50;100405.50;;;16.31
62611;BMP280;48683;48.084;17.272;2023-05-10T07:32:15;100411.19;;;16.37
62611;BMP280;48683;48.084;17.272;2023-05-10T07:34:41;100398.19;;;16.48
62611;BMP280;48683;48.084;17.272;2023-05-10T07:37:06;100397.50;;;16.44
62611;BMP280;48683;48.084;17.272;2023-05-10T07:39:32;100402.22;;;16.40
62611;BMP280;48683;48.084;17.272;2023-05-10T07:41:58;100397.78;;;16.49
62611;BMP280;48683;48.084;17.272;2023-05-10T07:44:23;100386.09;;;16.52
62611;BMP280;48683;48.084;17.272;2023-05-10T07:46:49;100404.44;;;16.65
62611;BMP280;48683;48.084;17.272;2023-05-10T07:49:14;100401.19;;;16.70
62611;BMP280;48683;48.084;17.272;2023-05-10T07:51:40;100394.44;;;16.78
62611;BMP280;48683;48.084;17.272;2023-05-10T07:54:05;100405.47;;;17.03
62611;BMP280;48683;48.084;17.272;2023-05-10T07:56:31;100400.88;;;16.68
62611;BMP280;48683;48.084;17.272;2023-05-10T07:59:01;100401.31;;;16.82
62611;BMP280;48683;48.084;17.272;2023-05-10T08:01:33;100404.31;;;17.04
62611;BMP280;48683;48.084;17.272;2023-05-10T08:03:59;100397.00;;;17.17
62611;BMP280;48683;48.084;17.272;2023-05-10T08:06:25;100403.00;;;17.41
62611;BMP280;48683;48.084;17.272;2023-05-10T08:08:52;100388.81;;;17.49
62611;BMP280;48683;48.084;17.272;2023-05-10T08:11:21;100391.56;;;17.33
62611;BMP280;48683;48.084;17.272;2023-05-10T08:13:48;100391.38;;;17.24
62611;BMP280;48683;48.084;17.272;2023-05-10T08:16:13;100402.81;;;17.48
62611;BMP280;48683;48.084;17.272;2023-05-10T08:18:39;100398.41;;;17.54
62611;BMP280;48683;48.084;17.272;2023-05-10T08:21:05;100406.47;;;17.58
62611;BMP280;48683;48.084;17.272;2023-05-10T08:23:31;100397.06;;;17.62
62611;BMP280;48683;48.084;17.272;2023-05-10T08:25:56;100405.31;;;17.71
62611;BMP280;48683;48.084;17.272;2023-05-10T08:28:22;100394.56;;;17.51
62611;BMP280;48683;48.084;17.272;2023-05-10T08:30:47;100402.69;;;17.68
62611;BMP280;48683;48.084;17.272;2023-05-10T08:33:13;100396.28;;;17.62
62611;BMP280;48683;48.084;17.272;2023-05-10T08:35:38;100397.56;;;17.41
62611;BMP280;48683;48.084;17.272;2023-05-10T08:38:03;100402.19;;;17.56
62611;BMP280;48683;48.084;17.272;2023-05-10T08:40:29;100400.03;;;17.80
62611;BMP280;48683;48.084;17.272;2023-05-10T08:42:58;100401.84;;;17.99
62611;BMP280;48683;48.084;17.272;2023-05-10T08:45:24;100406.00;;;18.04
62611;BMP280;48683;48.084;17.272;2023-05-10T08:47:52;100393.66;;;17.58
62611;BMP280;48683;48.084;17.272;2023-05-10T08:50:20;100398.88;;;17.94
62611;BMP280;48683;48.084;17.272;2023-05-10T08:52:51;100382.38;;;17.88
62611;BMP280;48683;48.084;17.272;2023-05-10T08:55:18;100389.69;;;18.04
62611;BMP280;48683;48.084;17.272;2023-05-10T08:57:43;100387.19;;;18.10
62611;BMP280;48683;48.084;17.272;2023-05-10T09:00:09;100395.38;;;18.22
62611;BMP280;48683;48.084;17.272;2023-05-10T09:02:36;100379.72;;;18.26
62611;BMP280;48683;48.084;17.272;2023-05-10T09:05:02;100373.53;;;18.26
62611;BMP280;48683;48.084;17.272;2023-05-10T09:07:29;100376.38;;;18.35
62611;BMP280;48683;48.084;17.272;2023-05-10T09:09:55;100379.97;;;18.44
62611;BMP280;48683;48.084;17.272;2023-05-10T09:12:21;100371.56;;;18.26
62611;BMP280;48683;48.084;17.272;2023-05-10T09:14:46;100383.47;;;18.58
62611;BMP280;48683;48.084;17.272;2023-05-10T09:17:11;100374.16;;;18.71
62611;BMP280;48683;48.084;17.272;2023-05-10T09:19:37;100368.00;;;18.42
62611;BMP280;48683;48.084;17.272;2023-05-10T09:22:03;100375.44;;;18.54
62611;BMP280;48683;48.084;17.272;2023-05-10T09:24:29;100371.63;;;18.77
62611;BMP280;48683;48.084;17.272;2023-05-10T09:26:56;100361.94;;;18.76
62611;BMP280;48683;48.084;17.272;2023-05-10T09:29:22;100345.50;;;18.79
62611;BMP280;48683;48.084;17.272;2023-05-10T09:31:51;100362.69;;;18.64
62611;BMP280;48683;48.084;17.272;2023-05-10T09:34:28;100359.66;;;18.74
62611;BMP280;48683;48.084;17.272;2023-05-10T09:36:55;100363.44;;;19.02
62611;BMP280;48683;48.084;17.272;2023-05-10T09:39:30;100354.66;;;18.85
62611;BMP280;48683;48.084;17.272;2023-05-10T09:41:56;100355.03;;;19.09
62611;BMP280;48683;48.084;17.272;2023-05-10T09:44:21;100358.28;;;19.17
62611;BMP280;48683;48.084;17.272;2023-05-10T09:46:50;100355.88;;;19.19
62611;BMP280;48683;48.084;17.272;2023-05-10T09:49:18;100352.03;;;19.29
62611;BMP280;48683;48.084;17.272;2023-05-10T09:51:44;100345.19;;;19.59
62611;BMP280;48683;48.084;17.272;2023-05-10T09:54:14;100358.13;;;19.67
62611;BMP280;48683;48.084;17.272;2023-05-10T09:56:40;100346.66;;;19.38
62611;BMP280;48683;48.084;17.272;2023-05-10T09:59:06;100346.16;;;19.65
62611;BMP280;48683;48.084;17.272;2023-05-10T10:01:33;100349.13;;;19.79
62611;BMP280;48683;48.084;17.272;2023-05-10T10:03:59;100354.53;;;19.92
62611;BMP280;48683;48.084;17.272;2023-05-10T10:06:27;100355.84;;;19.87
62611;BMP280;48683;48.084;17.272;2023-05-10T10:08:54;100344.25;;;19.74
62611;BMP280;48683;48.084;17.272;2023-05-10T10:11:19;100340.16;;;19.35
62611;BMP280;48683;48.084;17.272;2023-05-10T10:13:45;100333.81;;;19.51
62611;BMP280;48683;48.084;17.272;2023-05-10T10:16:10;100342.28;;;19.75
62611;BMP280;48683;48.084;17.272;2023-05-10T10:18:36;100342.53;;;19.89
62611;BMP280;48683;48.084;17.272;2023-05-10T10:21:07;100338.97;;;20.02
62611;BMP280;48683;48.084;17.272;2023-05-10T10:23:35;100312.13;;;19.91
62611;BMP280;48683;48.084;17.272;2023-05-10T10:26:20;100331.91;;;20.13
62611;BMP280;48683;48.084;17.272;2023-05-10T10:31:34;100331.97;;;20.53
62611;BMP280;48683;48.084;17.272;2023-05-10T10:34:03;100314.03;;;20.43
62611;BMP280;48683;48.084;17.272;2023-05-10T10:36:30;100310.94;;;20.23
62611;BMP280;48683;48.084;17.272;2023-05-10T10:38:59;100318.78;;;20.52
62611;BMP280;48683;48.084;17.272;2023-05-10T10:41:33;100312.16;;;20.62
62611;BMP280;48683;48.084;17.272;2023-05-10T10:49:30;100304.38;;;20.11
62611;BMP280;48683;48.084;17.272;2023-05-10T10:55:19;100311.59;;;20.05
62611;BMP280;48683;48.084;17.272;2023-05-10T10:58:10;100306.69;;;20.22
62611;BMP280;48683;48.084;17.272;2023-05-10T11:00:37;100300.78;;;20.54
62611;BMP280;48683;48.084;17.272;2023-05-10T11:03:06;100294.81;;;20.38
62611;BMP280;48683;48.084;17.272;2023-05-10T11:05:41;100298.03;;;20.63
62611;BMP280;48683;48.084;17.272;2023-05-10T11:08:26;100300.22;;;20.77
62611;BMP280;48683;48.084;17.272;2023-05-10T11:15:58;100288.25;;;19.95
62611;BMP280;48683;48.084;17.272;2023-05-10T11:18:28;100299.00;;;19.99
62611;BMP280;48683;48.084;17.272;2023-05-10T11:23:29;100296.59;;;20.31
62611;BMP280;48683;48.084;17.272;2023-05-10T11:25:55;100288.09;;;19.99
62611;BMP280;48683;48.084;17.272;2023-05-10T11:28:20;100286.16;;;19.99
62611;BMP280;48683;48.084;17.272;2023-05-10T11:31:06;100281.81;;;20.20
62611;BMP280;48683;48.084;17.272;2023-05-10T11:33:42;100276.00;;;20.40
62611;BMP280;48683;48.084;17.272;2023-05-10T11:36:11;100294.44;;;20.75
62611;BMP280;48683;48.084;17.272;2023-05-10T11:38:36;100292.44;;;20.58
62611;BMP280;48683;48.084;17.272;2023-05-10T11:41:02;100280.28;;;20.41
62611;BMP280;48683;48.084;17.272;2023-05-10T11:43:27;100273.00;;;20.47
62611;BMP280;48683;48.084;17.272;2023-05-10T11:45:55;100265.34;;;20.23
62611;BMP280;48683;48.084;17.272;2023-05-10T11:48:21;100260.91;;;19.77
62611;BMP280;48683;48.084;17.272;2023-05-10T11:50:49;100273.44;;;20.05
62611;BMP280;48683;48.084;17.272;2023-05-10T11:53:14;100258.03;;;19.80
62611;BMP280;48683;48.084;17.272;2023-05-10T11:55:40;100263.09;;;19.91
62611;BMP280;48683;48.084;17.272;2023-05-10T11:58:05;100271.31;;;20.31
62611;BMP280;48683;48.084;17.272;2023-05-10T12:00:31;100277.75;;;20.64
62611;BMP280;48683;48.084;17.272;2023-05-10T12:02:56;100273.56;;;20.81
62611;BMP280;48683;48.084;17.272;2023-05-10T12:05:22;100258.25;;;21.02
62611;BMP280;48683;48.084;17.272;2023-05-10T12:07:47;100258.56;;;21.04
62611;BMP280;48683;48.084;17.272;2023-05-10T12:10:13;100269.47;;;21.13
62611;BMP280;48683;48.084;17.272;2023-05-10T12:12:47;100249.13;;;21.05
62611;BMP280;48683;48.084;17.272;2023-05-10T12:15:21;100259.16;;;21.08
62611;BMP280;48683;48.084;17.272;2023-05-10T12:17:47;100267.81;;;21.25
62611;BMP280;48683;48.084;17.272;2023-05-10T12:20:20;100255.06;;;21.13
62611;BMP280;48683;48.084;17.272;2023-05-10T12:22:54;100248.41;;;21.05
62611;BMP280;48683;48.084;17.272;2023-05-10T12:25:22;100246.59;;;21.20
62611;BMP280;48683;48.084;17.272;2023-05-10T12:27:53;100240.06;;;21.36
62611;BMP280;48683;48.084;17.272;2023-05-10T12:30:23;100246.72;;;21.44
62611;BMP280;48683;48.084;17.272;2023-05-10T12:32:49;100244.06;;;21.67
62611;BMP280;48683;48.084;17.272;2023-05-10T12:35:14;100230.63;;;21.37
62611;BMP280;48683;48.084;17.272;2023-05-10T12:37:42;100239.91;;;21.30
62611;BMP280;48683;48.084;17.272;2023-05-10T12:40:07;100245.59;;;21.68
62611;BMP280;48683;48.084;17.272;2023-05-10T12:42:34;100222.97;;;21.68
62611;BMP280;48683;48.084;17.272;2023-05-10T12:45:00;100222.97;;;21.68
62611;BMP280;48683;48.084;17.272;2023-05-10T12:47:26;100223.97;;;21.28
62611;BMP280;48683;48.084;17.272;2023-05-10T12:49:51;100224.84;;;21.53
62611;BMP280;48683;48.084;17.272;2023-05-10T12:52:16;100229.84;;;21.54
62611;BMP280;48683;48.084;17.272;2023-05-10T12:54:42;100217.84;;;21.61
62611;BMP280;48683;48.084;17.272;2023-05-10T12:57:07;100209.19;;;21.62
62611;BMP280;48683;48.084;17.272;2023-05-10T12:59:32;100218.50;;;21.98
62611;BMP280;48683;48.084;17.272;2023-05-10T13:01:58;100202.66;;;21.69
62611;BMP280;48683;48.084;17.272;2023-05-10T13:04:23;100208.97;;;21.84
62611;BMP280;48683;48.084;17.272;2023-05-10T13:06:48;100203.19;;;21.91
62611;BMP280;48683;48.084;17.272;2023-05-10T13:09:14;100202.38;;;22.00
62611;BMP280;48683;48.084;17.272;2023-05-10T13:12:00;100211.50;;;21.46
62611;BMP280;48683;48.084;17.272;2023-05-10T13:14:45;100199.78;;;21.63
62611;BMP280;48683;48.084;17.272;2023-05-10T13:17:10;100203.19;;;21.91
62611;BMP280;48683;48.084;17.272;2023-05-10T13:19:36;100195.56;;;21.95
62611;BMP280;48683;48.084;17.272;2023-05-10T13:22:01;100188.03;;;22.14
62611;BMP280;48683;48.084;17.272;2023-05-10T13:24:27;100188.94;;;22.20
62611;BMP280;48683;48.084;17.272;2023-05-10T13:26:52;100198.75;;;22.50
62611;BMP280;48683;48.084;17.272;2023-05-10T13:29:17;100183.28;;;22.47
62611;BMP280;48683;48.084;17.272;2023-05-10T13:31:43;100182.00;;;22.34
62611;BMP280;48683;48.084;17.272;2023-05-10T13:34:08;100161.69;;;22.25
62611;BMP280;48683;48.084;17.272;2023-05-10T13:36:34;100174.13;;;21.70
62611;BMP280;48683;48.084;17.272;2023-05-10T13:38:59;100167.50;;;21.53
62611;BMP280;48683;48.084;17.272;2023-05-10T13:41:27;100182.59;;;21.03
62611;BMP280;48683;48.084;17.272;2023-05-10T13:43:53;100182.72;;;21.36
62611;BMP280;48683;48.084;17.272;2023-05-10T13:46:18;100174.91;;;21.61
62611;BMP280;48683;48.084;17.272;2023-05-10T13:48:44;100177.19;;;21.63
62611;BMP280;48683;48.084;17.272;2023-05-10T13:51:09;100165.03;;;21.04
62611;BMP280;48683;48.084;17.272;2023-05-10T13:53:35;100174.75;;;20.77
62611;BMP280;48683;48.084;17.272;2023-05-10T13:56:00;100178.34;;;21.02
62611;BMP280;48683;48.084;17.272;2023-05-10T13:58:27;100178.34;;;21.02
62611;BMP280;48683;48.084;17.272;2023-05-10T14:00:52;100166.56;;;20.77
62611;BMP280;48683;48.084;17.272;2023-05-10T14:03:17;100170.16;;;21.02
62611;BMP280;48683;48.084;17.272;2023-05-10T14:05:43;100171.66;;;21.30
62611;BMP280;48683;48.084;17.272;2023-05-10T14:08:10;100157.41;;;21.26
62611;BMP280;48683;48.084;17.272;2023-05-10T14:10:35;100161.59;;;21.54
62611;BMP280;48683;48.084;17.272;2023-05-10T14:13:01;100157.06;;;21.51
62611;BMP280;48683;48.084;17.272;2023-05-10T14:15:47;100162.28;;;21.04
62611;BMP280;48683;48.084;17.272;2023-05-10T14:18:12;100161.84;;;20.96
62611;BMP280;48683;48.084;17.272;2023-05-10T14:20:38;100160.75;;;21.21
62611;BMP280;48683;48.084;17.272;2023-05-10T14:23:03;100161.31;;;21.43
62611;BMP280;48683;48.084;17.272;2023-05-10T14:25:28;100152.31;;;21.52
62611;BMP280;48683;48.084;17.272;2023-05-10T14:27:54;100153.41;;;21.54